createdAt,value
2018-08-09T00:01:02.921Z,22.00
2018-08-09T00:03:31.578Z,22.10
2018-08-09T00:06:00.281Z,22.10
2018-08-09T00:08:29.067Z,22.00
2018-08-09T00:10:57.792Z,22.00
2018-08-09T00:13:26.514Z,22.00
2018-08-09T00:15:55.397Z,22.00
2018-08-09T00:18:24.387Z,22.00
2018-08-09T00:20:53.183Z,22.00
2018-08-09T00:23:22.065Z,22.10
2018-08-09T00:25:51.291Z,22.00
2018-08-09T00:28:19.897Z,22.10
2018-08-09T00:30:48.568Z,22.10
2018-08-09T00:33:17.229Z,22.00
2018-08-09T00:35:45.860Z,22.00
2018-08-09T00:38:14.445Z,22.00
2018-08-09T00:40:43.103Z,22.00
2018-08-09T00:43:11.603Z,22.00
2018-08-09T00:45:40.203Z,21.90
2018-08-09T00:48:08.719Z,21.90
2018-08-09T00:50:37.287Z,21.90
2018-08-09T00:53:05.842Z,21.90
2018-08-09T00:55:34.402Z,21.80
2018-08-09T00:58:02.934Z,21.70
2018-08-09T01:00:31.636Z,21.70
2018-08-09T01:03:00.552Z,21.70
2018-08-09T01:05:29.386Z,21.60
2018-08-09T01:07:58.037Z,21.60
2018-08-09T01:10:26.695Z,21.60
2018-08-09T01:12:55.537Z,21.50
2018-08-09T01:15:24.340Z,21.50
2018-08-09T01:17:53.091Z,21.50
2018-08-09T01:20:22.901Z,21.50
2018-08-09T01:22:51.893Z,21.50
2018-08-09T01:25:20.941Z,21.50
2018-08-09T01:27:49.842Z,21.50
2018-08-09T01:30:18.872Z,21.50
2018-08-09T01:32:47.578Z,21.60
2018-08-09T01:35:16.186Z,21.60
2018-08-09T01:37:44.790Z,21.60
2018-08-09T01:40:13.567Z,21.60
2018-08-09T01:42:53.410Z,21.60
2018-08-09T01:45:22.519Z,21.60
2018-08-09T01:47:51.948Z,21.60
2018-08-09T01:50:21.676Z,21.50
2018-08-09T01:52:50.610Z,21.50
2018-08-09T01:55:19.547Z,21.40
2018-08-09T01:57:48.512Z,21.40
2018-08-09T02:00:17.574Z,21.40
2018-08-09T02:02:46.239Z,21.40
2018-08-09T02:05:14.951Z,21.40
2018-08-09T02:07:43.454Z,21.40
2018-08-09T02:10:12.128Z,21.30
2018-08-09T02:12:40.674Z,21.30
2018-08-09T02:15:09.370Z,21.30
2018-08-09T02:17:37.893Z,21.30
2018-08-09T02:20:06.575Z,21.20
2018-08-09T02:22:35.262Z,21.20
2018-08-09T02:25:03.867Z,21.20
2018-08-09T02:27:32.574Z,21.10
2018-08-09T02:30:01.456Z,21.10
2018-08-09T02:32:30.118Z,21.10
2018-08-09T02:34:58.845Z,21.00
2018-08-09T02:37:27.518Z,21.00
2018-08-09T02:39:56.230Z,21.00
2018-08-09T02:42:25.120Z,20.90
2018-08-09T02:44:54.101Z,20.80
2018-08-09T02:47:22.929Z,20.70
2018-08-09T02:49:52.865Z,20.70
2018-08-09T02:52:22.048Z,20.70
2018-08-09T02:54:51.408Z,20.50
2018-08-09T02:57:20.766Z,20.40
2018-08-09T02:59:49.796Z,20.30
2018-08-09T03:02:18.775Z,20.30
2018-08-09T03:04:47.358Z,20.20
2018-08-09T03:07:15.966Z,20.10
2018-08-09T03:09:44.699Z,20.00
2018-08-09T03:12:13.298Z,19.90
2018-08-09T03:14:41.814Z,19.90
2018-08-09T03:17:10.455Z,19.80
2018-08-09T03:19:39.007Z,19.90
2018-08-09T03:22:07.607Z,19.90
2018-08-09T03:24:36.111Z,19.80
2018-08-09T03:27:04.723Z,19.90
2018-08-09T03:29:33.305Z,19.90
2018-08-09T03:32:01.993Z,20.00
2018-08-09T03:34:30.782Z,20.10
2018-08-09T03:36:59.639Z,20.10
2018-08-09T03:39:28.324Z,20.20
2018-08-09T03:41:57.048Z,20.20
2018-08-09T03:44:25.706Z,20.20
2018-08-09T03:46:54.589Z,20.20
2018-08-09T03:49:23.981Z,20.20
2018-08-09T03:51:53.716Z,20.20
2018-08-09T03:54:23.131Z,20.30
2018-08-09T03:56:52.193Z,20.30
2018-08-09T03:59:21.110Z,20.30
2018-08-09T04:01:51.326Z,20.30
2018-08-09T04:04:20.316Z,20.30
2018-08-09T04:06:50.090Z,20.30
2018-08-09T04:09:19.971Z,20.40
2018-08-09T04:11:48.916Z,20.40
2018-08-09T04:14:17.624Z,20.50
2018-08-09T04:16:46.527Z,20.50
2018-08-09T04:19:15.310Z,20.50
2018-08-09T04:21:44.013Z,20.50
2018-08-09T04:24:12.562Z,20.50
2018-08-09T04:26:41.242Z,20.60
2018-08-09T04:29:09.772Z,20.60
2018-08-09T04:31:38.350Z,20.70
2018-08-09T04:34:09.025Z,20.70
2018-08-09T04:36:41.980Z,20.80
2018-08-09T04:39:10.606Z,20.90
2018-08-09T04:41:39.167Z,21.10
2018-08-09T04:44:07.755Z,21.30
2018-08-09T04:46:36.317Z,21.40
2018-08-09T04:49:04.951Z,21.40
2018-08-09T04:51:33.496Z,21.50
2018-08-09T04:54:02.235Z,21.60
2018-08-09T04:56:30.938Z,21.60
2018-08-09T04:58:59.676Z,21.70
2018-08-09T05:01:28.505Z,21.80
2018-08-09T05:03:57.454Z,21.90
2018-08-09T05:06:26.158Z,22.00
2018-08-09T05:08:55.162Z,22.00
2018-08-09T05:11:24.116Z,22.00
2018-08-09T05:13:53.209Z,22.10
2018-08-09T05:16:23.553Z,22.20
2018-08-09T05:18:52.823Z,22.20
2018-08-09T05:21:22.973Z,22.30
2018-08-09T05:23:51.953Z,22.40
2018-08-09T05:26:22.293Z,22.50
2018-08-09T05:28:51.390Z,22.60
2018-08-09T05:31:21.298Z,22.70
2018-08-09T05:33:50.847Z,22.80
2018-08-09T05:36:21.833Z,22.90
2018-08-09T05:38:51.338Z,23.00
2018-08-09T05:41:20.490Z,23.10
2018-08-09T05:43:49.936Z,23.20
2018-08-09T05:46:20.081Z,23.30
2018-08-09T05:48:50.289Z,23.40
2018-08-09T05:51:20.017Z,23.40
2018-08-09T05:53:49.379Z,23.50
2018-08-09T05:56:20.533Z,23.50
2018-08-09T05:58:50.350Z,23.60
2018-08-09T06:01:19.842Z,23.60
2018-08-09T06:03:48.695Z,23.60
2018-08-09T06:06:18.102Z,23.70
2018-08-09T06:08:46.878Z,23.70
2018-08-09T06:11:15.731Z,23.80
2018-08-09T06:13:44.369Z,23.80
2018-08-09T06:16:13.071Z,23.90
2018-08-09T06:18:41.762Z,24.00
2018-08-09T06:21:10.332Z,24.00
2018-08-09T06:23:38.976Z,24.10
2018-08-09T06:26:07.521Z,24.20
2018-08-09T06:28:36.241Z,24.20
2018-08-09T06:31:04.879Z,24.30
2018-08-09T06:33:33.698Z,24.40
2018-08-09T06:36:02.367Z,24.40
2018-08-09T06:38:31.191Z,24.40
2018-08-09T06:40:59.933Z,24.50
2018-08-09T06:43:28.899Z,24.60
2018-08-09T06:46:01.203Z,24.70
2018-08-09T06:48:29.933Z,24.90
2018-08-09T06:50:58.829Z,25.00
2018-08-09T06:53:27.932Z,25.10
2018-08-09T06:55:56.649Z,25.20
2018-08-09T06:58:25.345Z,25.20
2018-08-09T07:00:54.433Z,25.30
2018-08-09T07:03:24.110Z,25.30
2018-08-09T07:05:53.860Z,25.40
2018-08-09T07:08:23.048Z,25.50
2018-08-09T07:10:52.417Z,25.60
2018-08-09T07:13:21.574Z,25.60
2018-08-09T07:15:50.685Z,25.70
2018-08-09T07:18:21.428Z,25.80
2018-08-09T07:20:50.652Z,26.00
2018-08-09T07:23:20.444Z,26.10
2018-08-09T07:25:50.328Z,26.20
2018-08-09T07:28:20.014Z,26.40
2018-08-09T07:30:49.628Z,26.50
2018-08-09T07:33:18.541Z,26.60
2018-08-09T07:35:47.464Z,26.80
2018-08-09T07:38:16.185Z,26.80
2018-08-09T07:40:44.928Z,26.80
2018-08-09T07:43:13.521Z,26.90
2018-08-09T07:45:42.074Z,27.00
2018-08-09T07:48:10.656Z,27.10
2018-08-09T07:50:39.246Z,27.20
2018-08-09T07:53:07.898Z,27.20
2018-08-09T07:55:36.426Z,27.30
2018-08-09T07:58:05.090Z,27.50
2018-08-09T08:00:33.958Z,27.70
2018-08-09T08:03:02.822Z,27.80
2018-08-09T08:05:31.684Z,28.00
2018-08-09T08:08:00.604Z,28.20
2018-08-09T08:10:29.370Z,28.40
2018-08-09T08:12:58.094Z,28.70
2018-08-09T08:15:26.981Z,28.90
2018-08-09T08:17:55.872Z,28.90
2018-08-09T08:20:25.172Z,28.80
2018-08-09T08:22:54.124Z,28.60
2018-08-09T08:25:23.198Z,28.60
2018-08-09T08:27:52.423Z,28.80
2018-08-09T08:30:22.248Z,28.90
2018-08-09T08:32:51.829Z,28.90
2018-08-09T08:35:21.063Z,28.90
2018-08-09T08:37:50.501Z,29.00
2018-08-09T08:40:20.761Z,29.20
2018-08-09T08:42:50.387Z,29.30
2018-08-09T08:45:19.580Z,29.70
2018-08-09T08:47:49.617Z,30.00
2018-08-09T08:50:19.295Z,30.30
2018-08-09T08:52:48.872Z,30.40
2018-08-09T08:55:17.938Z,30.60
2018-08-09T08:57:46.452Z,30.60
2018-08-09T09:00:15.126Z,30.60
2018-08-09T09:02:43.795Z,30.70
2018-08-09T09:05:13.158Z,30.80
2018-08-09T09:07:41.955Z,30.90
2018-08-09T09:10:12.082Z,31.00
2018-08-09T09:12:40.618Z,31.10
2018-08-09T09:15:13.319Z,31.10
2018-08-09T09:17:42.777Z,31.10
2018-08-09T09:20:13.740Z,31.00
2018-08-09T09:22:42.883Z,30.90
2018-08-09T09:25:11.996Z,30.90
2018-08-09T09:27:40.503Z,31.00
2018-08-09T09:30:12.257Z,31.20
2018-08-09T09:32:40.822Z,31.40
2018-08-09T09:35:09.857Z,31.40
2018-08-09T09:37:38.801Z,31.30
2018-08-09T09:40:08.175Z,31.10
2018-08-09T09:42:37.197Z,30.90
2018-08-09T09:45:06.066Z,30.80
2018-08-09T09:47:34.772Z,30.80
2018-08-09T09:50:04.021Z,30.70
2018-08-09T09:52:32.861Z,30.70
2018-08-09T09:55:01.611Z,30.50
2018-08-09T09:57:30.320Z,30.40
2018-08-09T09:59:59.015Z,30.30
2018-08-09T10:02:27.801Z,30.30
2018-08-09T10:04:56.848Z,30.20
2018-08-09T10:07:26.148Z,30.10
2018-08-09T10:09:55.727Z,30.10
2018-08-09T10:12:25.311Z,30.00
2018-08-09T10:14:54.648Z,30.00
2018-08-09T10:17:23.961Z,29.90
2018-08-09T10:19:54.042Z,30.00
2018-08-09T10:22:23.627Z,29.90
2018-08-09T10:24:52.876Z,29.90
2018-08-09T10:27:22.097Z,29.90
2018-08-09T10:29:51.688Z,29.80
2018-08-09T10:32:21.567Z,29.90
2018-08-09T10:34:51.398Z,30.00
2018-08-09T10:37:22.230Z,30.10
2018-08-09T10:39:52.399Z,30.10
2018-08-09T10:42:21.744Z,30.10
2018-08-09T10:44:50.993Z,30.10
2018-08-09T10:47:20.062Z,30.20
2018-08-09T10:49:49.227Z,30.30
2018-08-09T10:52:18.291Z,30.20
2018-08-09T10:54:47.245Z,30.20
2018-08-09T10:57:15.928Z,30.20
2018-08-09T10:59:44.459Z,30.20
2018-08-09T11:02:13.301Z,30.30
2018-08-09T11:04:41.842Z,30.30
2018-08-09T11:07:10.428Z,30.30
2018-08-09T11:09:38.928Z,30.20
2018-08-09T11:12:07.518Z,30.30
2018-08-09T11:14:36.116Z,30.30
2018-08-09T11:17:04.710Z,30.40
2018-08-09T11:19:33.481Z,30.40
2018-08-09T11:22:02.428Z,30.50
2018-08-09T11:24:31.200Z,30.50
2018-08-09T11:26:59.873Z,30.60
2018-08-09T11:29:28.674Z,30.50
2018-08-09T11:31:57.443Z,30.60
2018-08-09T11:34:26.306Z,30.60
2018-08-09T11:36:55.497Z,30.60
2018-08-09T11:39:24.600Z,30.70
2018-08-09T11:41:54.022Z,30.70
2018-08-09T11:44:23.017Z,30.70
2018-08-09T11:46:52.515Z,30.70
2018-08-09T11:49:22.057Z,30.70
2018-08-09T11:51:51.958Z,30.90
2018-08-09T11:54:21.692Z,30.90
2018-08-09T11:56:50.954Z,31.00
2018-08-09T11:59:20.851Z,31.10
2018-08-09T12:01:51.330Z,31.20
2018-08-09T12:04:21.660Z,31.20
2018-08-09T12:06:51.089Z,31.40
2018-08-09T12:09:20.580Z,31.40
2018-08-09T12:11:51.017Z,31.40
2018-08-09T12:14:20.156Z,31.50
2018-08-09T12:16:49.236Z,31.50
2018-08-09T12:19:19.179Z,31.50
2018-08-09T12:21:49.602Z,31.70
2018-08-09T12:24:18.610Z,31.70
2018-08-09T12:26:47.227Z,31.70
2018-08-09T12:29:15.832Z,31.90
2018-08-09T12:31:44.405Z,31.90
2018-08-09T12:34:12.954Z,31.90
2018-08-09T12:36:41.632Z,31.90
2018-08-09T12:39:12.118Z,31.90
2018-08-09T12:41:40.896Z,32.00
2018-08-09T12:44:09.834Z,32.10
2018-08-09T12:46:38.374Z,32.30
2018-08-09T12:49:07.140Z,32.30
2018-08-09T12:51:35.732Z,32.50
2018-08-09T12:54:04.386Z,32.60
2018-08-09T12:56:32.903Z,32.80
2018-08-09T12:59:01.479Z,32.90
2018-08-09T13:01:30.025Z,32.90
2018-08-09T13:03:58.676Z,33.00
2018-08-09T13:06:27.405Z,33.00
2018-08-09T13:08:55.987Z,33.00
2018-08-09T13:11:24.951Z,33.10
2018-08-09T13:13:53.712Z,33.20
2018-08-09T13:16:22.341Z,33.30
2018-08-09T13:18:51.071Z,33.40
2018-08-09T13:21:19.692Z,33.50
2018-08-09T13:23:48.394Z,33.50
2018-08-09T13:26:16.940Z,33.60
2018-08-09T13:28:45.540Z,33.60
2018-08-09T13:31:14.138Z,33.60
2018-08-09T13:33:42.750Z,33.60
2018-08-09T13:36:11.248Z,33.50
2018-08-09T13:38:39.862Z,33.60
2018-08-09T13:41:08.455Z,33.70
2018-08-09T13:43:37.059Z,33.70
2018-08-09T13:46:05.803Z,33.80
2018-08-09T13:48:35.423Z,33.90
2018-08-09T13:51:04.021Z,33.90
2018-08-09T13:53:32.693Z,33.90
2018-08-09T13:56:01.339Z,33.90
2018-08-09T13:58:30.034Z,34.00
2018-08-09T14:00:58.590Z,34.00
2018-08-09T14:03:29.030Z,34.00
2018-08-09T14:05:59.425Z,33.90
2018-08-09T14:08:29.782Z,33.90
2018-08-09T14:11:00.017Z,33.90
2018-08-09T14:13:29.925Z,34.00
2018-08-09T14:16:04.068Z,34.00
2018-08-09T14:18:34.769Z,34.00
2018-08-09T14:21:05.705Z,34.10
2018-08-09T14:23:40.917Z,34.10
2018-08-09T14:26:11.241Z,34.10
2018-08-09T14:28:41.282Z,34.10
2018-08-09T14:31:10.879Z,34.20
2018-08-09T14:33:40.704Z,34.20
2018-08-09T14:36:09.716Z,34.20
2018-08-09T14:38:39.455Z,34.30
2018-08-09T14:41:09.824Z,34.30
2018-08-09T14:43:39.396Z,34.20
2018-08-09T14:46:08.954Z,34.10
2018-08-09T14:48:39.103Z,34.10
2018-08-09T14:51:09.078Z,34.10
2018-08-09T14:53:39.164Z,34.10
2018-08-09T14:56:09.426Z,34.10
2018-08-09T14:58:39.929Z,34.10
2018-08-09T15:01:09.711Z,34.10
2018-08-09T15:03:43.445Z,34.10
2018-08-09T15:06:13.419Z,34.10
2018-08-09T15:08:43.598Z,34.00
2018-08-09T15:11:13.909Z,33.90
2018-08-09T15:13:43.588Z,33.90
2018-08-09T15:16:13.251Z,33.90
2018-08-09T15:18:42.942Z,33.90
2018-08-09T15:21:12.430Z,33.90
2018-08-09T15:23:42.591Z,33.80
2018-08-09T15:26:12.683Z,33.80
2018-08-09T15:28:43.515Z,33.70
2018-08-09T15:31:12.888Z,33.70
2018-08-09T15:33:42.172Z,33.70
2018-08-09T15:36:11.998Z,33.70
2018-08-09T15:38:46.994Z,33.70
2018-08-09T15:41:17.368Z,33.70
2018-08-09T15:43:47.911Z,33.60
2018-08-09T15:46:18.643Z,33.60
2018-08-09T15:48:48.880Z,33.50
2018-08-09T15:51:18.453Z,33.40
2018-08-09T15:53:47.648Z,33.40
2018-08-09T15:56:18.449Z,33.30
2018-08-09T15:58:48.396Z,33.20
2018-08-09T16:01:18.550Z,33.00
2018-08-09T16:03:48.567Z,33.00
2018-08-09T16:06:18.291Z,33.00
2018-08-09T16:08:48.574Z,33.00
2018-08-09T16:11:19.499Z,33.00
2018-08-09T16:13:50.247Z,33.00
2018-08-09T16:16:19.890Z,33.00
2018-08-09T16:18:50.723Z,33.00
2018-08-09T16:21:20.357Z,33.00
2018-08-09T16:23:50.434Z,33.00
2018-08-09T16:26:20.396Z,33.00
2018-08-09T16:28:49.941Z,33.00
2018-08-09T16:31:21.465Z,32.90
2018-08-09T16:34:01.796Z,32.80
2018-08-09T16:36:35.456Z,32.80
2018-08-09T16:39:15.503Z,32.80
2018-08-09T16:41:49.033Z,32.70
2018-08-09T16:44:18.693Z,32.60
2018-08-09T16:46:49.351Z,32.50
2018-08-09T16:49:19.743Z,32.50
2018-08-09T16:51:49.360Z,32.40
2018-08-09T16:54:19.282Z,32.30
2018-08-09T16:56:49.190Z,32.30
2018-08-09T16:59:17.788Z,32.10
2018-08-09T17:01:46.382Z,32.10
2018-08-09T17:04:16.590Z,31.90
2018-08-09T17:06:46.126Z,31.80
2018-08-09T17:09:15.204Z,31.70
2018-08-09T17:11:44.964Z,31.70
2018-08-09T17:14:14.944Z,31.60
2018-08-09T17:16:44.093Z,31.50
2018-08-09T17:19:12.625Z,31.50
2018-08-09T17:21:41.323Z,31.50
2018-08-09T17:24:10.731Z,31.40
2018-08-09T17:26:39.605Z,31.50
2018-08-09T17:29:09.111Z,31.40
2018-08-09T17:31:37.677Z,31.40
2018-08-09T17:34:06.327Z,31.30
2018-08-09T17:36:34.905Z,31.10
2018-08-09T17:39:03.819Z,31.00
2018-08-09T17:41:32.395Z,30.80
2018-08-09T17:44:00.949Z,30.70
2018-08-09T17:46:29.537Z,30.70
2018-08-09T17:48:58.133Z,30.70
2018-08-09T17:51:26.685Z,30.60
2018-08-09T17:53:55.254Z,30.50
2018-08-09T17:56:23.820Z,30.40
2018-08-09T17:58:52.423Z,30.30
2018-08-09T18:01:20.996Z,30.10
2018-08-09T18:03:49.622Z,30.00
2018-08-09T18:06:18.219Z,29.90
2018-08-09T18:08:46.845Z,29.80
2018-08-09T18:11:15.795Z,29.70
2018-08-09T18:13:44.349Z,29.70
2018-08-09T18:16:12.881Z,29.60
2018-08-09T18:18:41.504Z,29.50
2018-08-09T18:21:10.026Z,29.40
2018-08-09T18:23:39.031Z,29.30
2018-08-09T18:26:07.670Z,29.30
2018-08-09T18:28:36.223Z,29.20
2018-08-09T18:31:04.808Z,29.10
2018-08-09T18:33:33.486Z,29.10
2018-08-09T18:36:02.019Z,29.00
2018-08-09T18:38:30.641Z,29.00
2018-08-09T18:40:59.237Z,29.00
2018-08-09T18:43:27.818Z,28.90
2018-08-09T18:45:56.428Z,28.90
2018-08-09T18:48:24.993Z,28.90
2018-08-09T18:50:53.636Z,28.80
2018-08-09T18:53:22.205Z,28.80
2018-08-09T18:55:50.789Z,28.80
2018-08-09T18:58:19.374Z,28.80
2018-08-09T19:00:47.919Z,28.80
2018-08-09T19:03:16.496Z,28.80
2018-08-09T19:05:45.058Z,28.80
2018-08-09T19:08:13.674Z,28.80
2018-08-09T19:10:42.814Z,28.80
2018-08-09T19:13:11.460Z,28.70
2018-08-09T19:15:40.829Z,28.70
2018-08-09T19:18:10.462Z,28.70
2018-08-09T19:20:39.031Z,28.60
2018-08-09T19:23:07.669Z,28.60
2018-08-09T19:25:36.289Z,28.60
2018-08-09T19:28:04.948Z,28.80
2018-08-09T19:30:33.490Z,28.80
2018-08-09T19:33:02.139Z,28.50
2018-08-09T19:35:30.688Z,28.30
2018-08-09T19:37:59.986Z,27.90
2018-08-09T19:40:30.266Z,27.60
2018-08-09T19:42:59.800Z,27.30
2018-08-09T19:45:28.531Z,26.80
2018-08-09T19:47:57.149Z,26.40
2018-08-09T19:50:38.065Z,25.80
2018-08-09T19:56:00.816Z,24.40
2018-08-09T19:58:29.472Z,23.80
2018-08-09T20:00:58.207Z,23.40
2018-08-09T20:03:26.934Z,23.10
2018-08-09T20:05:55.670Z,22.80
2018-08-09T20:08:24.505Z,22.50
2018-08-09T20:10:53.334Z,22.40
2018-08-09T20:13:22.215Z,22.20
2018-08-09T20:15:50.824Z,22.10
2018-08-09T20:18:19.628Z,22.00
2018-08-09T20:20:48.312Z,21.90
2018-08-09T20:23:17.725Z,21.80
2018-08-09T20:25:46.489Z,21.70
2018-08-09T20:28:15.340Z,21.70
2018-08-09T20:30:44.017Z,21.60
2018-08-09T20:33:12.858Z,21.60
2018-08-09T20:35:41.546Z,21.50
2018-08-09T20:38:10.448Z,21.60
2018-08-09T20:40:39.284Z,21.60
2018-08-09T20:43:08.042Z,21.60
2018-08-09T20:45:36.798Z,21.60
2018-08-09T20:48:05.701Z,21.60
2018-08-09T20:50:34.588Z,21.60
2018-08-09T20:53:03.322Z,21.50
2018-08-09T20:55:32.176Z,21.50
2018-08-09T20:58:01.142Z,21.40
2018-08-09T21:00:31.435Z,21.40
2018-08-09T21:03:00.810Z,21.40
2018-08-09T21:05:30.930Z,21.30
2018-08-09T21:07:59.519Z,21.30
2018-08-09T21:10:28.639Z,21.30
2018-08-09T21:12:57.302Z,21.30
2018-08-09T21:15:25.967Z,21.20
2018-08-09T21:17:54.576Z,21.20
2018-08-09T21:20:23.816Z,21.20
2018-08-09T21:22:52.567Z,21.20
2018-08-09T21:25:21.201Z,21.20
2018-08-09T21:27:50.123Z,21.20
2018-08-09T21:30:20.060Z,21.20
2018-08-09T21:32:49.131Z,21.20
2018-08-09T21:35:17.721Z,21.20
2018-08-09T21:37:46.595Z,21.10
2018-08-09T21:40:15.740Z,21.10
2018-08-09T21:42:44.332Z,21.10
2018-08-09T21:45:14.901Z,21.10
2018-08-09T21:47:43.482Z,21.00
2018-08-09T21:50:14.339Z,21.00
2018-08-09T21:52:43.018Z,21.00
2018-08-09T21:55:12.467Z,21.00
2018-08-09T21:57:41.730Z,21.00
2018-08-09T22:00:18.708Z,21.00
2018-08-09T22:02:47.235Z,21.00
2018-08-09T22:05:21.220Z,20.90
2018-08-09T22:07:55.100Z,20.90
2018-08-09T22:10:29.034Z,20.90
2018-08-09T22:13:03.036Z,20.80
2018-08-09T22:15:36.839Z,20.80
2018-08-09T22:18:10.852Z,20.70
2018-08-09T22:20:44.610Z,20.70
2018-08-09T22:23:13.198Z,20.70
2018-08-09T22:25:41.735Z,20.60
2018-08-09T22:28:10.302Z,20.60
2018-08-09T22:33:31.579Z,20.50
2018-08-09T22:36:00.167Z,20.50
2018-08-09T22:38:29.275Z,20.40
2018-08-09T22:40:57.908Z,20.50
2018-08-09T22:43:26.538Z,20.40
2018-08-09T22:45:55.071Z,20.40
2018-08-09T22:48:23.626Z,20.40
2018-08-09T22:50:52.229Z,20.40
2018-08-09T22:53:20.804Z,20.30
2018-08-09T22:55:49.410Z,20.30
2018-08-09T22:58:18.029Z,20.30
2018-08-09T23:00:46.616Z,20.30
2018-08-09T23:03:15.327Z,20.20
2018-08-09T23:05:43.874Z,20.20
2018-08-09T23:08:13.739Z,20.20
2018-08-09T23:10:43.249Z,20.10
2018-08-09T23:13:12.791Z,20.10
2018-08-09T23:15:42.091Z,20.10
2018-08-09T23:18:10.783Z,20.10
2018-08-09T23:20:39.832Z,20.00
2018-08-09T23:23:08.466Z,19.90
2018-08-09T23:25:37.071Z,19.90
2018-08-09T23:28:06.391Z,19.90
2018-08-09T23:30:35.055Z,19.90
2018-08-09T23:33:03.767Z,19.90
2018-08-09T23:35:32.404Z,19.80
2018-08-09T23:38:01.011Z,19.80
2018-08-09T23:40:29.620Z,19.80
2018-08-09T23:42:58.233Z,19.70
2018-08-09T23:45:26.846Z,19.70
2018-08-09T23:47:55.473Z,19.70
2018-08-09T23:50:24.121Z,19.70
2018-08-09T23:52:52.707Z,19.60
2018-08-09T23:55:21.286Z,19.60
2018-08-09T23:57:49.853Z,19.60
